createdAt,value
2022-10-01T00:00:15.986Z,1.98
2022-10-01T00:02:44.419Z,1.92
2022-10-01T00:05:12.739Z,1.70
2022-10-01T00:07:44.451Z,1.88
2022-10-01T00:10:14.476Z,2.00
2022-10-01T00:12:47.261Z,2.25
2022-10-01T00:15:16.610Z,1.90
2022-10-01T00:17:44.928Z,2.03
2022-10-01T00:20:14.687Z,2.05
2022-10-01T00:22:44.709Z,2.03
2022-10-01T00:25:13.153Z,1.80
2022-10-01T00:27:41.418Z,1.83
2022-10-01T00:30:10.883Z,1.60
2022-10-01T00:32:41.319Z,1.88
2022-10-01T00:35:10.405Z,1.50
2022-10-01T00:37:38.898Z,1.83
2022-10-01T00:40:10.273Z,2.05
2022-10-01T00:42:39.163Z,1.70
2022-10-01T00:45:07.927Z,1.80
2022-10-01T00:47:41.120Z,1.50
2022-10-01T00:50:16.441Z,1.70
2022-10-01T00:52:50.065Z,1.30
2022-10-01T00:55:25.129Z,2.08
2022-10-01T00:57:53.987Z,1.88
2022-10-01T01:00:23.760Z,1.73
2022-10-01T01:02:52.483Z,1.70
2022-10-01T01:05:21.001Z,1.63
2022-10-01T01:07:52.366Z,1.52
2022-10-01T01:10:30.735Z,1.67
2022-10-01T01:13:13.100Z,1.98
2022-10-01T01:15:46.173Z,2.17
2022-10-01T01:18:23.671Z,1.65
2022-10-01T01:21:17.138Z,2.33
2022-10-01T01:24:21.756Z,1.70
2022-10-01T01:27:21.432Z,1.90
2022-10-01T01:29:55.719Z,1.77
2022-10-01T01:32:27.719Z,2.20
2022-10-01T01:35:02.459Z,1.65
2022-10-01T01:37:39.139Z,1.88
2022-10-01T01:40:11.509Z,2.15
2022-10-01T01:42:43.032Z,2.20
2022-10-01T01:45:19.747Z,1.85
2022-10-01T01:47:55.497Z,1.90
2022-10-01T01:50:26.290Z,2.00
2022-10-01T01:52:54.696Z,1.55
2022-10-01T01:55:25.079Z,1.50
2022-10-01T01:57:54.522Z,1.60
2022-10-01T02:00:25.001Z,1.63
2022-10-01T02:02:55.113Z,1.58
2022-10-01T02:05:27.359Z,1.80
2022-10-01T02:08:24.292Z,1.40
2022-10-01T02:11:12.869Z,1.60
2022-10-01T02:13:50.498Z,2.33
2022-10-01T02:16:25.812Z,1.50
2022-10-01T02:19:00.356Z,1.10
2022-10-01T02:21:34.976Z,1.98
2022-10-01T02:24:08.799Z,1.50
2022-10-01T02:26:39.124Z,1.73
2022-10-01T02:29:11.440Z,1.48
2022-10-01T02:31:42.595Z,1.23
2022-10-01T02:34:12.931Z,1.70
2022-10-01T02:36:42.754Z,1.55
2022-10-01T02:39:13.096Z,1.90
2022-10-01T02:41:44.590Z,1.75
2022-10-01T02:44:17.535Z,1.83
2022-10-01T02:46:53.304Z,1.88
2022-10-01T02:49:21.942Z,1.48
2022-10-01T02:52:01.330Z,1.55
2022-10-01T02:54:35.271Z,1.27
2022-10-01T02:57:20.712Z,1.63
2022-10-01T02:59:49.061Z,1.33
2022-10-01T03:02:19.282Z,1.60
2022-10-01T03:04:48.303Z,1.50
2022-10-01T03:07:17.097Z,1.55
2022-10-01T03:09:45.412Z,2.00
2022-10-01T03:12:13.901Z,1.70
2022-10-01T03:14:42.210Z,1.60
2022-10-01T03:17:10.815Z,1.52
2022-10-01T03:19:40.983Z,1.63
2022-10-01T03:22:09.905Z,1.80
2022-10-01T03:24:38.265Z,1.60
2022-10-01T03:27:06.754Z,1.58
2022-10-01T03:29:35.220Z,1.42
2022-10-01T03:32:03.759Z,1.58
2022-10-01T03:34:32.072Z,1.38
2022-10-01T03:37:02.014Z,1.70
2022-10-01T03:39:30.330Z,1.45
2022-10-01T03:41:58.960Z,1.50
2022-10-01T03:44:28.571Z,1.83
2022-10-01T03:46:56.946Z,1.40
2022-10-01T03:49:25.345Z,1.45
2022-10-01T03:51:54.264Z,1.40
2022-10-01T03:54:25.587Z,1.10
2022-10-01T03:56:53.876Z,1.55
2022-10-01T03:59:22.141Z,1.58
2022-10-01T04:01:50.517Z,1.67
2022-10-01T04:04:18.994Z,1.40
2022-10-01T04:06:47.263Z,1.38
2022-10-01T04:09:15.557Z,1.58
2022-10-01T04:11:45.421Z,1.08
2022-10-01T04:14:14.460Z,1.60
2022-10-01T04:16:42.934Z,1.52
2022-10-01T04:19:11.264Z,1.90
2022-10-01T04:21:39.709Z,1.58
2022-10-01T04:24:08.337Z,1.50
2022-10-01T04:26:36.714Z,1.30
2022-10-01T04:29:06.574Z,1.52
2022-10-01T04:31:36.188Z,1.50
2022-10-01T04:34:05.225Z,1.20
2022-10-01T04:36:33.477Z,1.80
2022-10-01T04:39:02.933Z,1.10
2022-10-01T04:41:32.117Z,1.63
2022-10-01T04:44:00.996Z,1.60
2022-10-01T04:46:31.366Z,1.17
2022-10-01T04:48:59.920Z,1.70
2022-10-01T04:51:28.275Z,1.65
2022-10-01T04:53:56.758Z,1.63
2022-10-01T04:56:25.146Z,1.35
2022-10-01T04:58:53.478Z,1.48
2022-10-01T05:01:21.835Z,1.35
2022-10-01T05:03:51.664Z,1.90
2022-10-01T05:06:20.057Z,1.48
2022-10-01T05:08:48.888Z,1.47
2022-10-01T05:11:17.268Z,1.53
2022-10-01T05:13:45.767Z,1.40
2022-10-01T05:16:14.174Z,1.40
2022-10-01T05:18:43.508Z,1.30
2022-10-01T05:21:19.541Z,1.50
2022-10-01T05:23:48.138Z,1.40
2022-10-01T05:26:16.478Z,1.63
2022-10-01T05:28:45.497Z,1.70
2022-10-01T05:31:14.712Z,1.38
2022-10-01T05:33:43.482Z,1.25
2022-10-01T05:36:13.178Z,2.17
2022-10-01T05:38:42.431Z,1.67
2022-10-01T05:41:10.948Z,2.20
2022-10-01T05:43:39.276Z,1.65
2022-10-01T05:46:07.912Z,2.10
2022-10-01T05:48:37.189Z,1.27
2022-10-01T05:51:06.823Z,1.40
2022-10-01T05:53:37.841Z,1.45
2022-10-01T05:56:06.591Z,1.33
2022-10-01T05:58:35.348Z,1.48
2022-10-01T06:01:04.303Z,1.50
2022-10-01T06:03:33.155Z,1.45
2022-10-01T06:06:02.069Z,1.60
2022-10-01T06:08:30.384Z,1.40
2022-10-01T06:11:02.813Z,1.42
2022-10-01T06:13:32.106Z,2.10
2022-10-01T06:16:00.574Z,1.65
2022-10-01T06:18:29.073Z,1.70
2022-10-01T06:20:59.926Z,1.60
2022-10-01T06:23:28.304Z,1.50
2022-10-01T06:25:56.723Z,1.88
2022-10-01T06:28:26.490Z,1.40
2022-10-01T06:30:54.973Z,1.30
2022-10-01T06:33:23.254Z,1.63
2022-10-01T06:35:53.258Z,1.48
2022-10-01T06:38:23.484Z,1.30
2022-10-01T06:40:55.510Z,1.52
2022-10-01T06:43:26.029Z,1.00
2022-10-01T06:45:54.710Z,1.83
2022-10-01T06:48:23.464Z,1.23
2022-10-01T06:50:53.227Z,1.42
2022-10-01T06:53:22.100Z,1.55
2022-10-01T06:55:50.792Z,1.38
2022-10-01T06:58:21.066Z,1.52
2022-10-01T07:00:51.685Z,1.73
2022-10-01T07:03:23.003Z,1.57
2022-10-01T07:05:51.865Z,1.65
2022-10-01T07:08:21.106Z,1.40
2022-10-01T07:10:49.454Z,1.48
2022-10-01T07:13:20.588Z,1.30
2022-10-01T07:15:50.257Z,1.00
2022-10-01T07:18:18.804Z,1.80
2022-10-01T07:20:47.147Z,2.05
2022-10-01T07:23:16.606Z,1.50
2022-10-01T07:25:45.896Z,1.20
2022-10-01T07:28:18.485Z,1.20
2022-10-01T07:30:48.932Z,1.88
2022-10-01T07:33:20.962Z,1.20
2022-10-01T07:35:50.370Z,1.30
2022-10-01T07:38:18.748Z,1.83
2022-10-01T07:40:52.756Z,1.38
2022-10-01T07:43:21.030Z,1.00
2022-10-01T07:45:50.337Z,1.20
2022-10-01T07:48:20.084Z,1.75
2022-10-01T07:50:48.481Z,1.63
2022-10-01T07:53:17.159Z,1.45
2022-10-01T07:55:45.912Z,1.50
2022-10-01T07:58:14.302Z,1.47
2022-10-01T08:00:43.520Z,1.85
2022-10-01T08:03:13.021Z,1.50
2022-10-01T08:05:43.777Z,1.48
2022-10-01T08:08:12.252Z,1.30
2022-10-01T08:10:41.476Z,1.77
2022-10-01T08:13:14.578Z,1.37
2022-10-01T08:15:43.569Z,1.55
2022-10-01T08:18:12.141Z,1.30
2022-10-01T08:20:42.809Z,1.38
2022-10-01T08:23:12.885Z,1.63
2022-10-01T08:25:42.023Z,1.30
2022-10-01T08:28:12.199Z,1.70
2022-10-01T08:30:42.464Z,2.38
2022-10-01T08:33:12.762Z,1.30
2022-10-01T08:35:43.720Z,1.50
2022-10-01T08:38:14.043Z,1.50
2022-10-01T08:40:48.688Z,1.27
2022-10-01T08:43:31.918Z,1.70
2022-10-01T08:46:04.822Z,1.13
2022-10-01T08:48:56.909Z,1.48
2022-10-01T08:51:33.135Z,1.40
2022-10-01T08:54:11.720Z,1.63
2022-10-01T08:56:46.411Z,1.42
2022-10-01T08:59:27.282Z,1.92
2022-10-01T09:01:56.550Z,1.67
2022-10-01T09:04:26.018Z,1.65
2022-10-01T09:07:01.777Z,1.63
2022-10-01T09:09:40.617Z,1.90
2022-10-01T09:12:26.442Z,1.40
2022-10-01T09:15:18.026Z,1.30
2022-10-01T09:17:56.988Z,1.30
2022-10-01T09:20:28.653Z,0.90
2022-10-01T09:23:15.459Z,1.00
2022-10-01T09:25:45.978Z,0.85
2022-10-01T09:28:17.890Z,1.02
2022-10-01T09:30:51.948Z,1.23
2022-10-01T09:33:21.495Z,1.40
2022-10-01T09:35:54.805Z,1.10
2022-10-01T09:38:29.452Z,1.25
2022-10-01T09:40:59.030Z,1.10
2022-10-01T09:43:30.472Z,1.23
2022-10-01T09:45:59.166Z,1.00
2022-10-01T09:48:34.144Z,1.48
2022-10-01T09:51:09.393Z,1.15
2022-10-01T09:53:44.039Z,1.20
2022-10-01T09:56:17.559Z,1.20
2022-10-01T09:58:53.354Z,1.00
2022-10-01T10:01:31.657Z,1.30
2022-10-01T10:03:59.964Z,1.40
2022-10-01T10:06:31.752Z,1.10
2022-10-01T10:09:03.553Z,1.42
2022-10-01T10:11:33.267Z,0.95
2022-10-01T10:14:03.790Z,1.10
2022-10-01T10:16:35.916Z,0.98
2022-10-01T10:19:10.486Z,1.17
2022-10-01T10:21:39.313Z,1.10
2022-10-01T10:24:26.594Z,1.48
2022-10-01T10:26:57.292Z,1.27
2022-10-01T10:29:30.572Z,1.00
2022-10-01T10:31:59.921Z,1.13
2022-10-01T10:34:33.931Z,1.08
2022-10-01T10:37:07.146Z,1.33
2022-10-01T10:39:40.632Z,1.67
2022-10-01T10:42:09.532Z,1.00
2022-10-01T10:44:40.192Z,1.33
2022-10-01T10:47:13.669Z,1.27
2022-10-01T10:49:46.359Z,0.93
2022-10-01T10:52:25.366Z,1.50
2022-10-01T10:54:55.099Z,1.38
2022-10-01T10:57:27.998Z,1.30
2022-10-01T10:59:59.277Z,1.20
2022-10-01T11:02:30.962Z,0.95
2022-10-01T11:05:03.650Z,1.45
2022-10-01T11:07:33.687Z,1.30
2022-10-01T11:10:28.973Z,0.90
2022-10-01T11:13:34.396Z,1.60
2022-10-01T11:16:24.331Z,1.33
2022-10-01T11:19:28.320Z,1.13
2022-10-01T11:22:14.808Z,0.88
2022-10-01T11:25:01.174Z,0.90
2022-10-01T11:27:39.698Z,1.10
2022-10-01T11:30:14.721Z,1.00
2022-10-01T11:32:47.802Z,0.90
2022-10-01T11:35:42.278Z,0.90
2022-10-01T11:38:37.967Z,0.93
2022-10-01T11:41:16.457Z,0.77
2022-10-01T11:43:53.187Z,0.75
2022-10-01T11:46:30.558Z,0.88
2022-10-01T11:49:04.031Z,1.40
2022-10-01T11:51:40.522Z,0.63
2022-10-01T11:54:13.558Z,1.20
2022-10-01T11:57:04.337Z,0.95
2022-10-01T11:59:38.885Z,0.93
2022-10-01T12:02:19.244Z,0.90
2022-10-01T12:04:53.370Z,1.05
2022-10-01T12:07:27.713Z,0.75
2022-10-01T12:10:02.624Z,0.80
2022-10-01T12:12:36.452Z,1.02
2022-10-01T12:15:13.745Z,1.05
2022-10-01T12:17:48.880Z,0.70
2022-10-01T12:20:29.315Z,0.90
2022-10-01T12:23:01.055Z,0.80
2022-10-01T12:25:38.020Z,0.80
2022-10-01T12:28:11.918Z,0.70
2022-10-01T12:30:48.089Z,0.80
2022-10-01T12:33:40.298Z,1.00
2022-10-01T12:36:19.079Z,1.08
2022-10-01T12:39:00.695Z,1.02
2022-10-01T12:41:42.176Z,0.60
2022-10-01T12:44:39.109Z,0.93
2022-10-01T12:47:24.373Z,1.20
2022-10-01T12:50:04.470Z,1.20
2022-10-01T12:52:43.745Z,1.10
2022-10-01T12:55:49.124Z,1.40
2022-10-01T12:58:33.284Z,0.85
2022-10-01T13:01:12.655Z,0.80
2022-10-01T13:04:12.401Z,1.20
2022-10-01T13:06:54.139Z,1.08
2022-10-01T13:09:30.828Z,1.10
2022-10-01T13:12:18.150Z,1.13
2022-10-01T13:14:47.668Z,0.90
2022-10-01T13:17:22.467Z,0.90
2022-10-01T13:19:59.479Z,0.95
2022-10-01T13:22:37.123Z,0.70
2022-10-01T13:25:20.998Z,0.50
2022-10-01T13:27:56.650Z,0.30
2022-10-01T13:30:27.860Z,0.65
2022-10-01T13:33:00.949Z,0.90
2022-10-01T13:35:35.838Z,0.70
2022-10-01T13:38:15.786Z,0.70
2022-10-01T13:40:44.770Z,0.73
2022-10-01T13:43:18.438Z,0.80
2022-10-01T13:45:48.466Z,0.98
2022-10-01T13:48:21.068Z,0.75
2022-10-01T13:51:03.783Z,0.95
2022-10-01T13:53:34.223Z,0.65
2022-10-01T13:56:03.290Z,1.00
2022-10-01T13:58:40.335Z,0.90
2022-10-01T14:01:29.251Z,1.10
2022-10-01T14:04:05.451Z,0.80
2022-10-01T14:06:43.086Z,0.85
2022-10-01T14:09:17.558Z,0.90
2022-10-01T14:12:06.732Z,0.80
2022-10-01T14:14:54.918Z,1.10
2022-10-01T14:17:26.754Z,1.20
2022-10-01T14:19:55.259Z,1.10
2022-10-01T14:22:48.535Z,1.00
2022-10-01T14:25:49.199Z,1.25
2022-10-01T14:28:51.101Z,1.40
2022-10-01T14:31:27.848Z,1.08
2022-10-01T14:34:20.253Z,0.85
2022-10-01T14:36:50.640Z,1.40
2022-10-01T14:39:22.258Z,0.90
2022-10-01T14:41:52.584Z,0.77
2022-10-01T14:44:23.687Z,1.33
2022-10-01T14:46:53.003Z,0.90
2022-10-01T14:49:24.220Z,1.10
2022-10-01T14:51:56.461Z,1.13
2022-10-01T14:54:26.776Z,1.20
2022-10-01T14:56:56.131Z,1.40
2022-10-01T14:59:32.503Z,1.27
2022-10-01T15:02:03.256Z,0.98
2022-10-01T15:04:31.581Z,0.90
2022-10-01T15:07:13.051Z,1.00
2022-10-01T15:09:42.923Z,1.02
2022-10-01T15:12:13.052Z,1.08
2022-10-01T15:14:42.803Z,1.08
2022-10-01T15:17:20.863Z,0.98
2022-10-01T15:19:52.988Z,1.00
2022-10-01T15:22:25.288Z,1.10
2022-10-01T15:24:59.746Z,1.40
2022-10-01T15:27:28.463Z,1.27
2022-10-01T15:29:58.817Z,1.05
2022-10-01T15:32:29.226Z,1.30
2022-10-01T15:35:00.808Z,1.88
2022-10-01T15:37:32.513Z,1.42
2022-10-01T15:40:03.975Z,1.70
2022-10-01T15:42:34.192Z,1.20
2022-10-01T15:45:25.921Z,0.97
2022-10-01T15:47:57.188Z,1.48
2022-10-01T15:50:29.133Z,1.50
2022-10-01T15:53:03.667Z,1.40
2022-10-01T15:55:37.181Z,1.38
2022-10-01T15:58:14.218Z,1.40
2022-10-01T16:00:56.876Z,1.75
2022-10-01T16:03:27.687Z,1.50
2022-10-01T16:05:56.863Z,1.20
2022-10-01T16:08:32.930Z,1.52
2022-10-01T16:11:18.878Z,1.70
2022-10-01T16:13:49.193Z,1.20
2022-10-01T16:16:26.790Z,1.80
2022-10-01T16:18:59.288Z,2.03
2022-10-01T16:21:27.952Z,1.40
2022-10-01T16:23:57.258Z,1.45
2022-10-01T16:26:41.137Z,1.20
2022-10-01T16:29:23.482Z,1.35
2022-10-01T16:31:52.323Z,1.50
2022-10-01T16:34:21.920Z,1.30
2022-10-01T16:36:50.383Z,1.38
2022-10-01T16:39:18.663Z,1.45
2022-10-01T16:42:01.674Z,1.07
2022-10-01T16:44:40.943Z,1.33
2022-10-01T16:47:12.879Z,1.50
2022-10-01T16:49:41.542Z,1.70
2022-10-01T16:52:14.824Z,1.20
2022-10-01T16:54:44.453Z,1.10
2022-10-01T16:57:15.501Z,1.50
2022-10-01T16:59:44.058Z,1.55
2022-10-01T17:02:14.458Z,1.45
2022-10-01T17:04:43.533Z,1.58
2022-10-01T17:07:11.952Z,1.75
2022-10-01T17:09:41.107Z,1.60
2022-10-01T17:12:10.588Z,1.70
2022-10-01T17:14:40.731Z,1.42
2022-10-01T17:17:09.209Z,1.65
2022-10-01T17:19:37.457Z,1.50
2022-10-01T17:22:05.777Z,1.48
2022-10-01T17:24:34.176Z,1.50
2022-10-01T17:27:02.409Z,1.63
2022-10-01T17:29:32.326Z,1.80
2022-10-01T17:32:02.179Z,2.05
2022-10-01T17:34:30.523Z,2.22
2022-10-01T17:36:59.933Z,1.83
2022-10-01T17:39:28.283Z,1.42
2022-10-01T17:41:57.142Z,1.80
2022-10-01T17:44:25.541Z,1.38
2022-10-01T17:46:54.021Z,1.63
2022-10-01T17:49:23.670Z,1.50
2022-10-01T17:51:53.371Z,1.27
2022-10-01T17:54:21.772Z,1.33
2022-10-01T17:56:52.538Z,1.20
2022-10-01T17:59:20.959Z,0.95
2022-10-01T18:01:51.050Z,1.80
2022-10-01T18:04:19.428Z,1.33
2022-10-01T18:06:49.801Z,1.40
2022-10-01T18:09:18.539Z,1.17
2022-10-01T18:11:46.823Z,1.38
2022-10-01T18:14:15.207Z,1.60
2022-10-01T18:16:43.441Z,1.60
2022-10-01T18:19:52.422Z,1.90
2022-10-01T18:22:13.166Z,1.73
2022-10-01T18:24:42.335Z,3.58
2022-10-01T18:27:11.628Z,2.30
2022-10-01T18:29:40.040Z,1.80
2022-10-01T18:32:15.288Z,1.60
2022-10-01T18:34:48.429Z,2.88
2022-10-01T18:37:33.952Z,4.40
2022-10-01T18:40:09.696Z,2.78
2022-10-01T18:42:46.545Z,17.90
2022-10-01T18:45:17.990Z,13.23
2022-10-01T18:47:57.680Z,3.50
2022-10-01T18:50:41.177Z,4.90
2022-10-01T18:53:45.127Z,4.25
2022-10-01T18:56:33.308Z,2.00
2022-10-01T18:59:28.314Z,1.90
2022-10-01T19:02:21.794Z,1.70
2022-10-01T19:05:10.498Z,1.67
2022-10-01T19:07:51.519Z,1.45
2022-10-01T19:10:30.943Z,1.60
2022-10-01T19:13:08.968Z,2.60
2022-10-01T19:15:48.093Z,3.47
2022-10-01T19:18:37.025Z,3.55
2022-10-01T19:21:16.752Z,2.22
2022-10-01T19:24:13.221Z,3.10
2022-10-01T19:26:50.606Z,2.65
2022-10-01T19:29:37.315Z,3.40
2022-10-01T19:32:11.047Z,2.88
2022-10-01T19:34:44.119Z,3.53
2022-10-01T19:37:16.901Z,3.05
2022-10-01T19:39:49.055Z,3.00
2022-10-01T19:42:24.688Z,5.43
2022-10-01T19:44:59.638Z,5.63
2022-10-01T19:47:40.246Z,3.20
2022-10-01T19:50:19.897Z,4.00
2022-10-01T19:52:51.668Z,2.70
2022-10-01T19:55:24.094Z,3.03
2022-10-01T19:57:54.150Z,3.13
2022-10-01T20:00:24.917Z,3.03
2022-10-01T20:03:00.996Z,3.38
2022-10-01T20:05:33.519Z,5.60
2022-10-01T20:08:07.356Z,6.28
2022-10-01T20:10:40.421Z,3.28
2022-10-01T20:13:25.381Z,6.38
2022-10-01T20:16:02.703Z,3.85
2022-10-01T20:18:38.559Z,3.40
2022-10-01T20:21:27.011Z,4.35
2022-10-01T20:23:59.256Z,2.95
2022-10-01T20:26:35.643Z,2.30
2022-10-01T20:29:29.809Z,5.35
2022-10-01T20:32:04.094Z,2.47
2022-10-01T20:34:42.275Z,2.65
2022-10-01T20:37:25.746Z,2.28
2022-10-01T20:40:01.781Z,2.78
2022-10-01T20:42:38.567Z,3.03
2022-10-01T20:45:19.090Z,2.13
2022-10-01T20:47:54.115Z,3.03
2022-10-01T20:50:28.179Z,2.70
2022-10-01T20:53:05.306Z,3.42
2022-10-01T20:55:40.729Z,2.80
2022-10-01T20:58:15.147Z,2.45
2022-10-01T21:00:46.062Z,2.63
2022-10-01T21:03:25.162Z,3.10
2022-10-01T21:05:58.959Z,3.07
2022-10-01T21:08:40.102Z,2.60
2022-10-01T21:11:14.515Z,3.07
2022-10-01T21:13:49.179Z,2.97
2022-10-01T21:16:45.377Z,2.88
2022-10-01T21:19:26.889Z,1.95
2022-10-01T21:22:01.615Z,2.00
2022-10-01T21:24:44.247Z,1.65
2022-10-01T21:27:27.780Z,1.58
2022-10-01T21:30:15.451Z,1.87
2022-10-01T21:33:19.439Z,1.67
2022-10-01T21:35:55.082Z,1.70
2022-10-01T21:38:31.709Z,2.00
2022-10-01T21:41:27.813Z,1.63
2022-10-01T21:44:36.190Z,1.77
2022-10-01T21:47:12.796Z,2.20
2022-10-01T21:49:54.323Z,1.73
2022-10-01T21:52:37.350Z,1.73
2022-10-01T21:55:31.161Z,1.60
2022-10-01T21:58:23.152Z,1.33
2022-10-01T22:01:00.928Z,1.43
2022-10-01T22:03:36.288Z,2.40
2022-10-01T22:06:13.479Z,1.58
2022-10-01T22:08:59.107Z,1.40
2022-10-01T22:11:32.419Z,1.27
2022-10-01T22:14:03.929Z,1.35
2022-10-01T22:16:39.617Z,1.23
2022-10-01T22:19:12.718Z,1.30
2022-10-01T22:21:44.718Z,1.00
2022-10-01T22:24:17.257Z,1.17
2022-10-01T22:26:56.931Z,1.38
2022-10-01T22:29:29.935Z,1.20
2022-10-01T22:32:03.364Z,1.75
2022-10-01T22:34:39.295Z,1.50
2022-10-01T22:37:13.293Z,1.45
2022-10-01T22:39:49.054Z,1.33
2022-10-01T22:42:22.354Z,1.50
2022-10-01T22:44:50.725Z,1.10
2022-10-01T22:47:39.157Z,1.50
2022-10-01T22:50:29.413Z,1.13
2022-10-01T22:53:09.615Z,1.45
2022-10-01T22:55:47.910Z,1.17
2022-10-01T22:58:50.939Z,1.30
2022-10-01T23:01:29.241Z,1.30
2022-10-01T23:04:10.674Z,1.20
2022-10-01T23:06:45.920Z,1.70
2022-10-01T23:09:19.502Z,1.17
2022-10-01T23:11:56.753Z,1.33
2022-10-01T23:14:47.030Z,1.50
2022-10-01T23:17:21.247Z,1.27
2022-10-01T23:20:00.779Z,1.58
2022-10-01T23:22:42.788Z,1.30
2022-10-01T23:25:23.903Z,1.07
2022-10-01T23:28:07.780Z,1.83
2022-10-01T23:30:47.220Z,0.98
2022-10-01T23:33:33.987Z,1.40
2022-10-01T23:36:10.529Z,1.75
2022-10-01T23:38:53.132Z,1.70
2022-10-01T23:41:26.758Z,1.10
2022-10-01T23:44:04.025Z,1.38
2022-10-01T23:46:34.879Z,1.20
2022-10-01T23:49:07.632Z,1.58
2022-10-01T23:51:41.001Z,2.13
2022-10-01T23:54:18.990Z,1.38
2022-10-01T23:56:52.106Z,1.58
2022-10-01T23:59:29.096Z,1.47
